createdAt,value
2018-06-13T10:21:07.949Z,99.24
2018-06-13T10:22:07.953Z,96.66
2018-06-13T10:23:07.896Z,97.95
2018-06-13T10:24:07.883Z,96.94
2018-06-13T10:25:07.858Z,95.84
2018-06-13T10:26:07.853Z,94.74
2018-06-13T10:27:07.826Z,94.50
2018-06-13T10:28:07.815Z,95.79
2018-06-13T10:29:07.796Z,95.12
2018-06-13T10:30:07.794Z,94.59
2018-06-13T10:31:07.777Z,93.93
2018-06-13T10:32:07.745Z,94.93
2018-06-13T10:33:07.734Z,92.63
2018-06-13T10:34:07.716Z,93.93
2018-06-13T10:35:07.699Z,94.74
2018-06-13T10:36:07.726Z,94.35
2018-06-13T10:37:07.667Z,94.64
2018-06-13T10:38:07.653Z,94.54
2018-06-13T10:39:07.641Z,92.63
2018-06-13T10:40:07.626Z,91.19
2018-06-13T10:41:07.605Z,92.72
2018-06-13T10:42:07.608Z,93.78
2018-06-13T10:43:07.581Z,94.88
2018-06-13T10:44:07.571Z,96.03
2018-06-13T10:45:07.550Z,93.40
2018-06-13T10:46:07.539Z,92.58
2018-06-13T10:47:07.552Z,93.15
2018-06-13T10:48:07.506Z,95.89
2018-06-13T10:49:07.491Z,89.79
2018-06-13T10:50:07.477Z,92.48
2018-06-13T10:51:07.460Z,91.52
2018-06-13T10:52:07.491Z,91.77
2018-06-13T10:53:07.431Z,92.82
2018-06-13T10:54:07.416Z,91.05
2018-06-13T10:55:07.405Z,92.58
2018-06-13T10:56:07.388Z,92.24
2018-06-13T10:57:07.372Z,95.60
2018-06-13T10:58:07.374Z,93.97
2018-06-13T10:59:07.343Z,93.21
2018-06-13T11:00:07.340Z,92.72
2018-06-13T11:01:07.317Z,92.68
2018-06-13T11:02:07.303Z,93.73
2018-06-13T11:03:07.304Z,95.07
2018-06-13T11:04:07.270Z,94.79
2018-06-13T11:05:07.256Z,93.93
2018-06-13T11:06:07.248Z,95.65
2018-06-13T11:07:07.228Z,94.79
2018-06-13T11:08:07.224Z,95.36
2018-06-13T11:09:07.199Z,96.13
2018-06-13T11:10:07.185Z,97.76
2018-06-13T11:11:07.169Z,97.47
2018-06-13T11:12:07.156Z,96.80
2018-06-13T11:13:07.162Z,95.94
2018-06-13T11:14:07.126Z,96.80
2018-06-13T11:15:07.111Z,97.66
2018-06-13T11:16:07.239Z,96.99
2018-06-13T11:17:07.080Z,97.56
2018-06-13T11:18:07.070Z,97.66
2018-06-13T11:19:07.069Z,97.85
2018-06-13T11:20:07.043Z,98.33
2018-06-13T11:21:07.022Z,98.62
2018-06-13T11:22:07.008Z,98.62
2018-06-13T11:23:06.993Z,99.91
2018-06-13T11:24:06.999Z,98.57
2018-06-13T11:25:06.979Z,98.86
2018-06-13T11:26:06.969Z,97.81
2018-06-13T11:27:06.930Z,97.38
2018-06-13T11:28:06.919Z,97.09
2018-06-13T11:29:06.909Z,96.66
2018-06-13T11:30:06.919Z,96.70
2018-06-13T11:31:06.870Z,96.85
2018-06-13T11:32:06.862Z,98.14
2018-06-13T11:33:06.850Z,97.47
2018-06-13T11:34:06.830Z,96.13
2018-06-13T11:35:06.816Z,96.32
2018-06-13T11:36:06.819Z,96.42
2018-06-13T11:37:06.789Z,96.32
2018-06-13T11:38:06.776Z,96.89
2018-06-13T11:39:06.761Z,96.47
2018-06-13T11:40:06.748Z,97.90
2018-06-13T11:41:06.729Z,97.33
2018-06-13T11:42:06.733Z,99.29
2018-06-13T11:43:06.703Z,97.23
2018-06-13T11:44:06.690Z,97.61
2018-06-13T11:45:06.674Z,98.28
2018-06-13T11:46:06.661Z,97.14
2018-06-13T11:47:06.674Z,98.00
2018-06-13T11:48:06.666Z,98.10
2018-06-13T11:49:06.618Z,96.85
2018-06-13T11:50:06.600Z,97.33
2018-06-13T11:51:06.588Z,96.56
2018-06-13T11:52:06.573Z,97.33
2018-06-13T11:53:06.575Z,95.94
2018-06-13T11:54:06.545Z,95.94
2018-06-13T11:55:06.532Z,93.97
2018-06-13T11:56:06.517Z,94.12
2018-06-13T11:57:06.503Z,93.35
2018-06-13T11:58:06.491Z,94.98
2018-06-13T11:59:06.483Z,92.00
2018-06-13T12:00:06.468Z,90.90
2018-06-13T12:01:06.445Z,90.27
2018-06-13T12:02:06.434Z,88.25
2018-06-13T12:03:06.421Z,88.59
2018-06-13T12:04:06.421Z,88.87
2018-06-13T12:05:06.392Z,88.16
2018-06-13T12:06:06.395Z,86.66
2018-06-13T12:07:06.373Z,86.38
2018-06-13T12:08:06.349Z,85.85
2018-06-13T12:09:06.341Z,85.52
2018-06-13T12:10:06.342Z,86.34
2018-06-13T12:11:06.312Z,86.63
2018-06-13T12:12:06.295Z,87.98
2018-06-13T12:13:06.280Z,86.63
2018-06-13T12:14:06.272Z,88.07
2018-06-13T12:15:06.264Z,90.47
2018-06-13T12:16:06.270Z,90.28
2018-06-13T12:17:06.233Z,88.60
2018-06-13T12:18:06.214Z,90.04
2018-06-13T12:19:06.201Z,90.90
2018-06-13T12:20:06.233Z,91.34
2018-06-13T12:21:06.183Z,92.10
2018-06-13T12:22:06.176Z,93.83
2018-06-13T12:23:06.150Z,94.31
2018-06-13T12:24:06.131Z,94.50
2018-06-13T12:25:06.119Z,95.17
2018-06-13T12:26:06.105Z,95.46
2018-06-13T12:27:06.093Z,95.84
2018-06-13T12:28:06.095Z,96.75
2018-06-13T12:29:06.060Z,97.33
2018-06-13T12:30:06.042Z,97.14
2018-06-13T12:31:06.037Z,97.23
2018-06-13T12:32:06.019Z,98.00
2018-06-13T12:33:06.002Z,97.90
2018-06-13T12:34:06.001Z,98.76
2018-06-13T12:35:05.973Z,98.86
2018-06-13T12:36:05.961Z,99.05
2018-06-13T12:37:05.948Z,98.47
2018-06-13T12:38:05.926Z,98.57
2018-06-13T12:39:05.939Z,98.47
2018-06-13T12:40:05.905Z,97.95
2018-06-13T12:41:05.884Z,98.19
2018-06-13T12:42:05.873Z,98.14
2018-06-13T12:43:05.853Z,98.72
2018-06-13T12:44:05.875Z,98.62
2018-06-13T12:45:05.826Z,97.56
2018-06-13T12:46:05.807Z,98.33
2018-06-13T12:47:05.795Z,98.48
2018-06-13T12:48:05.781Z,98.62
2018-06-13T12:49:05.764Z,98.28
2018-06-13T12:50:05.810Z,97.33
2018-06-13T12:51:05.733Z,97.04
2018-06-13T12:52:05.720Z,97.81
2018-06-13T12:53:05.702Z,98.24
2018-06-13T12:54:05.694Z,98.28
2018-06-13T12:55:05.673Z,98.28
2018-06-13T12:56:05.673Z,98.38
2018-06-13T12:57:05.643Z,97.90
2018-06-13T12:58:05.626Z,97.42
2018-06-13T12:59:05.699Z,97.71
2018-06-13T13:00:05.596Z,98.10
2018-06-13T13:01:05.595Z,97.18
2018-06-13T13:02:05.566Z,97.42
2018-06-13T13:03:05.554Z,97.95
2018-06-13T13:04:05.539Z,97.47
2018-06-13T13:05:05.519Z,99.48
2018-06-13T13:06:05.508Z,98.52
2018-06-13T13:07:05.510Z,99.48
2018-06-13T13:08:05.478Z,98.05
2018-06-13T13:09:05.470Z,98.24
2018-06-13T13:10:05.455Z,97.42
2018-06-13T13:11:05.486Z,98.05
2018-06-13T13:12:05.420Z,98.24
2018-06-13T13:13:05.441Z,98.38
2018-06-13T13:14:05.388Z,98.48
2018-06-13T13:15:05.375Z,98.57
2018-06-13T13:16:05.363Z,97.28
2018-06-13T13:17:05.391Z,98.10
2018-06-13T13:18:05.346Z,97.38
2018-06-13T13:19:05.317Z,98.28
2018-06-13T13:20:05.328Z,97.81
2018-06-13T13:21:05.289Z,96.75
2018-06-13T13:22:05.272Z,97.81
2018-06-13T13:23:05.256Z,96.94
2018-06-13T13:24:05.259Z,97.71
2018-06-13T13:25:05.226Z,98.38
2018-06-13T13:26:05.222Z,97.04
2018-06-13T13:27:05.198Z,96.94
2018-06-13T13:28:05.229Z,97.14
2018-06-13T13:29:05.173Z,96.66
2018-06-13T13:30:05.179Z,96.66
2018-06-13T13:31:05.165Z,97.56
2018-06-13T13:32:05.129Z,97.95
2018-06-13T13:33:05.110Z,98.24
2018-06-13T13:34:05.097Z,98.86
2018-06-13T13:35:05.078Z,99.24
2018-06-13T13:36:05.079Z,99.99
2018-06-13T13:37:05.049Z,99.99
2018-06-13T13:38:05.035Z,99.10
2018-06-13T13:39:05.015Z,99.68
2018-06-13T13:40:05.002Z,99.99
2018-06-13T13:41:05.010Z,99.19
2018-06-13T13:42:04.972Z,98.81
2018-06-13T13:43:04.957Z,98.24
2018-06-13T13:44:04.942Z,99.05
2018-06-13T13:45:04.933Z,98.77
2018-06-13T13:46:05.195Z,98.28
2018-06-13T13:47:04.919Z,97.42
2018-06-13T13:48:04.886Z,98.10
2018-06-13T13:49:04.868Z,99.05
2018-06-13T13:50:04.856Z,99.05
2018-06-13T13:51:04.844Z,97.23
2018-06-13T13:52:04.846Z,98.19
2018-06-13T13:53:04.828Z,98.57
2018-06-13T13:54:04.842Z,97.33
2018-06-13T13:55:04.784Z,98.38
2018-06-13T13:56:04.770Z,98.00
2018-06-13T13:57:04.764Z,94.54
2018-06-13T13:58:04.754Z,92.58
2018-06-13T13:59:04.730Z,91.72
2018-06-13T14:00:04.707Z,93.06
2018-06-13T14:01:04.690Z,94.31
2018-06-13T14:02:04.675Z,94.45
2018-06-13T14:03:04.664Z,91.81
2018-06-13T14:04:04.658Z,91.14
2018-06-13T14:05:04.632Z,92.96
2018-06-13T14:06:04.620Z,92.00
2018-06-13T14:07:04.664Z,92.33
2018-06-13T14:08:04.591Z,90.70
2018-06-13T14:09:04.596Z,89.02
2018-06-13T14:10:04.560Z,89.31
2018-06-13T14:11:04.547Z,86.24
2018-06-13T14:12:04.542Z,84.75
2018-06-13T14:13:04.520Z,86.43
2018-06-13T14:14:04.503Z,82.24
2018-06-13T14:15:04.513Z,81.61
2018-06-13T14:16:04.479Z,79.17
2018-06-13T14:17:04.465Z,79.36
2018-06-13T14:18:04.447Z,78.48
2018-06-13T14:19:04.437Z,81.13
2018-06-13T14:20:04.439Z,81.27
2018-06-13T14:21:04.410Z,78.40
2018-06-13T14:22:04.439Z,77.86
2018-06-13T14:23:04.389Z,78.38
2018-06-13T14:24:04.370Z,77.86
2018-06-13T14:25:04.361Z,79.07
2018-06-13T14:26:04.396Z,81.57
2018-06-13T14:27:04.333Z,83.97
2018-06-13T14:28:04.319Z,85.71
2018-06-13T14:29:04.307Z,84.12
2018-06-13T14:30:04.292Z,85.85
2018-06-13T14:31:04.285Z,85.66
2018-06-13T14:32:04.301Z,85.03
2018-06-13T14:33:04.253Z,83.07
2018-06-13T14:34:04.240Z,84.31
2018-06-13T14:35:04.227Z,84.12
2018-06-13T14:36:04.217Z,84.18
2018-06-13T14:37:04.205Z,84.51
2018-06-13T14:38:04.208Z,83.70
2018-06-13T14:39:04.179Z,85.18
2018-06-13T14:40:04.168Z,83.84
2018-06-13T14:41:04.153Z,81.67
2018-06-13T14:42:04.136Z,83.41
2018-06-13T14:43:04.204Z,83.22
2018-06-13T14:44:04.112Z,81.05
2018-06-13T14:45:04.106Z,81.63
2018-06-13T14:46:04.087Z,83.74
2018-06-13T14:47:04.069Z,83.07
2018-06-13T14:48:04.052Z,82.97
2018-06-13T14:49:04.073Z,80.42
2018-06-13T14:50:04.034Z,82.82
2018-06-13T14:51:04.026Z,78.63
2018-06-13T14:52:04.002Z,76.96
2018-06-13T14:53:03.990Z,73.98
2018-06-13T14:54:03.979Z,74.65
2018-06-13T14:55:03.984Z,73.83
2018-06-13T14:56:03.957Z,73.09
2018-06-13T14:57:03.943Z,69.60
2018-06-13T14:58:03.927Z,70.15
2018-06-13T14:59:03.917Z,68.00
2018-06-13T15:00:03.930Z,68.60
2018-06-13T15:01:03.905Z,67.61
2018-06-13T15:02:03.900Z,62.96
2018-06-13T15:03:03.859Z,60.22
2018-06-13T15:04:03.849Z,57.03
2018-06-13T15:05:03.839Z,55.83
2018-06-13T15:06:03.849Z,54.32
2018-06-13T15:07:03.813Z,54.80
2018-06-13T15:08:03.867Z,55.83
2018-06-13T15:09:03.792Z,55.57
2018-06-13T15:10:03.792Z,55.55
2018-06-13T15:11:03.790Z,57.67
2018-06-13T15:12:03.777Z,54.37
2018-06-13T15:13:03.808Z,52.03
2018-06-13T15:14:03.747Z,52.00
2018-06-13T15:15:03.739Z,56.15
2018-06-13T15:16:03.732Z,62.77
2018-06-13T15:17:03.743Z,65.56
2018-06-13T15:18:03.728Z,67.96
2018-06-13T15:19:03.704Z,69.66
2018-06-13T15:20:03.694Z,71.64
2018-06-13T15:21:03.687Z,72.83
2018-06-13T15:22:03.678Z,74.55
2018-06-13T15:23:03.691Z,75.90
2018-06-13T15:24:03.654Z,75.23
2018-06-13T15:25:03.652Z,73.98
2018-06-13T15:26:03.632Z,74.75
2018-06-13T15:27:03.622Z,72.54
2018-06-13T15:28:03.628Z,73.31
2018-06-13T15:29:03.615Z,73.21
2018-06-13T15:30:03.594Z,74.88
2018-06-13T15:31:03.578Z,72.48
2018-06-13T15:32:03.573Z,68.90
2018-06-13T15:33:03.576Z,68.29
2018-06-13T15:34:03.548Z,68.13
2018-06-13T15:35:03.533Z,66.20
2018-06-13T15:36:03.523Z,63.02
2018-06-13T15:37:03.512Z,64.89
2018-06-13T15:38:03.504Z,62.70
2018-06-13T15:39:03.518Z,64.56
2018-06-13T15:40:03.480Z,63.28
2018-06-13T15:41:03.474Z,65.01
2018-06-13T15:42:03.455Z,65.66
2018-06-13T15:43:03.449Z,66.42
2018-06-13T15:44:03.433Z,68.32
2018-06-13T15:45:03.432Z,70.72
2018-06-13T15:46:03.416Z,71.40
2018-06-13T15:47:03.401Z,69.67
2018-06-13T15:48:03.389Z,70.05
2018-06-13T15:49:03.376Z,70.01
2018-06-13T15:50:03.378Z,71.08
2018-06-13T15:51:03.355Z,74.40
2018-06-13T15:52:03.345Z,75.75
2018-06-13T15:53:03.332Z,74.65
2018-06-13T15:54:03.348Z,77.73
2018-06-13T15:55:03.333Z,78.65
2018-06-13T15:56:03.303Z,79.55
2018-06-13T15:57:03.289Z,80.99
2018-06-13T15:58:03.275Z,76.48
2018-06-13T15:59:03.264Z,76.09
2018-06-13T16:00:03.255Z,78.50
2018-06-13T16:01:03.258Z,78.59
2018-06-13T16:02:03.225Z,79.36
2018-06-13T16:03:03.213Z,80.22
2018-06-13T16:04:03.201Z,80.42
2018-06-13T16:05:03.186Z,79.65
2018-06-13T16:06:03.175Z,78.40
2018-06-13T16:07:03.174Z,78.98
2018-06-13T16:08:03.147Z,80.61
2018-06-13T16:09:03.138Z,80.71
2018-06-13T16:10:03.141Z,78.69
2018-06-13T16:11:03.418Z,76.57
2018-06-13T16:12:03.124Z,76.52
2018-06-13T16:13:03.091Z,75.84
2018-06-13T16:14:03.076Z,76.81
2018-06-13T16:15:03.059Z,76.32
2018-06-13T16:16:03.049Z,75.75
2018-06-13T16:17:03.033Z,78.06
2018-06-13T16:18:03.045Z,75.62
2018-06-13T16:19:03.008Z,75.17
2018-06-13T16:20:02.994Z,73.63
2018-06-13T16:21:03.007Z,74.05
2018-06-13T16:22:02.968Z,71.28
2018-06-13T16:23:02.968Z,69.31
2018-06-13T16:24:02.961Z,66.85
2018-06-13T16:25:02.932Z,62.51
2018-06-13T16:26:02.919Z,65.75
2018-06-13T16:27:02.905Z,66.27
2018-06-13T16:28:02.908Z,70.01
2018-06-13T16:29:02.884Z,68.67
2018-06-13T16:30:02.882Z,68.67
2018-06-13T16:31:02.864Z,69.92
2018-06-13T16:32:02.851Z,70.84
2018-06-13T16:33:02.835Z,68.51
2018-06-13T16:34:02.828Z,68.67
2018-06-13T16:35:02.837Z,70.78
2018-06-13T16:36:02.805Z,69.98
2018-06-13T16:37:02.791Z,71.29
2018-06-13T16:38:02.784Z,72.58
2018-06-13T16:39:02.765Z,71.39
2018-06-13T16:40:02.750Z,73.02
2018-06-13T16:41:02.770Z,72.44
2018-06-13T16:42:02.731Z,72.73
2018-06-13T16:43:02.717Z,74.37
2018-06-13T16:44:02.713Z,75.52
2018-06-13T16:45:02.700Z,74.27
2018-06-13T16:46:02.684Z,73.18
2018-06-13T16:47:02.684Z,75.42
2018-06-13T16:48:02.658Z,77.83
2018-06-13T16:49:02.697Z,77.73
2018-06-13T16:50:02.637Z,76.29
2018-06-13T16:51:02.626Z,79.27
2018-06-13T16:52:02.660Z,77.06
2018-06-13T16:53:02.593Z,78.45
2018-06-13T16:54:02.581Z,79.61
2018-06-13T16:55:02.572Z,79.61
2018-06-13T16:56:02.556Z,78.27
2018-06-13T16:57:02.557Z,83.16
2018-06-13T16:58:02.527Z,80.57
2018-06-13T16:59:02.518Z,80.86
2018-06-13T17:00:02.506Z,81.63
2018-06-13T17:01:02.492Z,82.40
2018-06-13T17:02:02.504Z,81.24
2018-06-13T17:03:02.474Z,80.57
2018-06-13T17:04:02.453Z,80.47
2018-06-13T17:05:02.457Z,79.52
2018-06-13T17:06:02.420Z,79.13
2018-06-13T17:07:02.408Z,83.16
2018-06-13T17:08:02.431Z,81.10
2018-06-13T17:09:02.416Z,81.87
2018-06-13T17:10:02.400Z,82.16
2018-06-13T17:11:02.370Z,83.41
2018-06-13T17:12:02.380Z,84.85
2018-06-13T17:13:02.346Z,87.35
2018-06-13T17:14:02.347Z,86.38
2018-06-13T17:15:02.371Z,85.24
2018-06-13T17:16:02.286Z,85.33
2018-06-13T17:17:02.338Z,84.75
2018-06-13T17:18:02.307Z,85.52
2018-06-13T17:19:02.415Z,83.70
2018-06-13T17:20:02.263Z,83.27
2018-06-13T17:21:02.251Z,83.89
2018-06-13T17:22:02.198Z,84.66
2018-06-13T17:23:02.189Z,85.81
2018-06-13T17:24:02.174Z,85.14
2018-06-13T17:25:02.173Z,82.93
2018-06-13T17:26:02.141Z,83.22
2018-06-13T17:27:02.134Z,84.66
2018-06-13T17:28:02.115Z,85.52
2018-06-13T17:29:02.097Z,86.58
2018-06-13T17:30:02.087Z,86.19
2018-06-13T17:31:02.092Z,85.33
2018-06-13T17:32:02.063Z,85.52
2018-06-13T17:33:02.043Z,85.42
2018-06-13T17:34:02.027Z,85.42
2018-06-13T17:35:02.018Z,84.37
2018-06-13T17:36:02.000Z,84.14
2018-06-13T17:37:01.994Z,83.85
2018-06-13T17:38:01.969Z,83.37
2018-06-13T17:39:01.953Z,82.64
2018-06-13T17:40:01.966Z,83.89
2018-06-13T17:41:01.933Z,83.12
2018-06-13T17:42:01.932Z,84.56
2018-06-13T17:43:01.901Z,81.49
2018-06-13T17:44:01.892Z,79.38
2018-06-13T17:45:01.911Z,79.57
2018-06-13T17:46:01.870Z,79.96
2018-06-13T17:47:01.849Z,78.03
2018-06-13T17:48:01.843Z,79.14
2018-06-13T17:49:01.816Z,79.09
2018-06-13T17:50:01.799Z,79.86
2018-06-13T17:51:01.783Z,78.96
2018-06-13T17:52:01.764Z,80.30
2018-06-13T17:53:01.751Z,80.20
2018-06-13T17:54:01.795Z,81.93
2018-06-13T17:55:01.725Z,82.70
2018-06-13T17:56:01.726Z,83.27
2018-06-13T17:57:01.693Z,80.34
2018-06-13T17:58:01.678Z,82.74
2018-06-13T17:59:01.718Z,82.10
2018-06-13T18:00:01.683Z,79.76
2018-06-13T18:01:01.634Z,80.82
2018-06-13T18:02:01.627Z,83.31
2018-06-13T18:03:01.611Z,83.70
2018-06-13T18:04:01.596Z,81.01
2018-06-13T18:05:01.634Z,81.78
2018-06-13T18:06:01.607Z,86.00
2018-06-13T18:07:01.551Z,83.12
2018-06-13T18:08:01.542Z,85.04
2018-06-13T18:09:01.518Z,84.18
2018-06-13T18:10:01.505Z,84.08
2018-06-13T18:11:01.494Z,85.24
2018-06-13T18:12:01.490Z,83.37
2018-06-13T18:13:01.463Z,85.52
2018-06-13T18:14:01.448Z,86.44
2018-06-13T18:15:01.437Z,85.91
2018-06-13T18:16:01.436Z,85.96
2018-06-13T18:17:01.428Z,89.03
2018-06-13T18:18:01.388Z,87.49
2018-06-13T18:19:01.383Z,86.72
2018-06-13T18:20:01.389Z,88.35
2018-06-13T18:21:01.346Z,87.68
2018-06-13T18:22:01.402Z,87.88
2018-06-13T18:23:01.331Z,89.03
2018-06-13T18:24:01.348Z,89.12
2018-06-13T18:25:01.295Z,91.42
2018-06-13T18:26:01.279Z,89.99
2018-06-13T18:27:01.254Z,90.28
2018-06-13T18:28:01.241Z,89.79
2018-06-13T18:29:01.252Z,91.77
2018-06-13T18:30:01.210Z,91.48
2018-06-13T18:31:01.195Z,92.05
2018-06-13T18:32:01.184Z,93.49
2018-06-13T18:33:01.179Z,92.15
2018-06-13T18:34:01.196Z,91.96
2018-06-13T18:35:01.163Z,89.99
2018-06-13T18:36:01.122Z,89.03
2018-06-13T18:37:01.106Z,90.47
2018-06-13T18:38:01.093Z,87.88
2018-06-13T18:39:01.076Z,87.88
2018-06-13T18:40:01.063Z,87.78
2018-06-13T18:41:01.062Z,85.19
2018-06-13T18:42:01.030Z,84.91
2018-06-13T18:43:01.018Z,86.25
2018-06-13T18:44:01.005Z,83.18
2018-06-13T18:45:00.993Z,83.85
2018-06-13T18:46:00.994Z,81.16
2018-06-13T18:47:00.990Z,83.27
2018-06-13T18:48:00.939Z,82.60
2018-06-13T18:49:00.927Z,82.98
2018-06-13T18:50:00.909Z,81.74
2018-06-13T18:51:00.898Z,83.37
2018-06-13T18:52:00.885Z,85.77
2018-06-13T18:53:00.901Z,84.71
2018-06-13T18:54:00.849Z,84.42
2018-06-13T18:55:00.837Z,85.86
2018-06-13T18:56:00.829Z,85.00
2018-06-13T18:57:00.802Z,83.85
2018-06-13T18:58:00.895Z,84.09
2018-06-13T18:59:01.244Z,85.53
2018-06-13T19:00:00.763Z,85.92
2018-06-13T19:01:00.744Z,84.67
2018-06-13T19:02:00.739Z,85.63
2018-06-13T19:03:00.777Z,85.72
2018-06-13T19:04:00.786Z,86.21
2018-06-13T19:05:00.841Z,87.21
2018-06-13T19:06:00.857Z,85.97
2018-06-13T19:07:00.779Z,85.97
2018-06-13T19:08:00.847Z,85.78
2018-06-13T19:09:01.651Z,87.21
2018-06-13T19:10:00.844Z,86.74
2018-06-13T19:11:00.802Z,88.23
2018-06-13T19:12:01.162Z,88.51
2018-06-13T19:13:00.906Z,87.65
2018-06-13T19:14:00.546Z,88.70
2018-06-13T19:15:00.578Z,86.12
2018-06-13T19:16:00.527Z,86.41
2018-06-13T19:17:00.498Z,89.09
2018-06-13T19:18:00.496Z,89.95
2018-06-13T19:19:00.466Z,86.98
2018-06-13T19:20:00.474Z,87.84
2018-06-13T19:21:00.446Z,88.90
2018-06-13T19:22:00.432Z,91.19
2018-06-13T19:23:00.406Z,92.87
2018-06-13T19:24:00.388Z,93.11
2018-06-13T19:25:00.373Z,93.64
2018-06-13T19:26:00.376Z,94.02
2018-06-13T19:27:00.345Z,94.50
2018-06-13T19:28:00.324Z,94.31
2018-06-13T19:29:01.387Z,93.54
2018-06-13T19:30:00.301Z,93.83
2018-06-13T19:31:00.520Z,95.46
2018-06-13T19:32:00.264Z,95.65
2018-06-13T19:33:00.475Z,96.70
2018-06-13T19:34:00.628Z,96.70
2018-06-13T19:35:00.498Z,96.84
2018-06-13T19:36:00.215Z,97.28
2018-06-13T19:37:00.179Z,97.28
2018-06-13T19:38:00.162Z,96.84
2018-06-13T19:39:00.146Z,97.61
2018-06-13T19:40:00.131Z,98.09
2018-06-13T19:41:00.128Z,98.66
2018-06-13T19:42:00.108Z,98.86
2018-06-13T19:43:00.081Z,97.71
2018-06-13T19:44:00.076Z,98.00
2018-06-13T19:45:00.255Z,98.09
2018-06-13T19:46:00.165Z,97.61
2018-06-13T19:47:00.028Z,97.90
2018-06-13T19:48:00.005Z,98.57
2018-06-13T19:49:00.166Z,99.38
2018-06-13T19:50:00.392Z,99.10
2018-06-13T19:51:00.070Z,99.67
2018-06-13T19:52:00.017Z,99.99
2018-06-13T19:52:59.973Z,99.99
2018-06-13T19:54:00.069Z,99.99
2018-06-13T19:54:59.888Z,99.99
2018-06-13T19:55:59.888Z,99.99
2018-06-13T19:57:00.260Z,99.99
2018-06-13T19:58:00.007Z,99.99
2018-06-13T19:58:59.823Z,99.99
2018-06-13T19:59:59.800Z,99.99
2018-06-13T20:00:59.783Z,99.99
2018-06-13T20:01:59.777Z,99.99
2018-06-13T20:02:59.757Z,99.99
2018-06-13T20:03:59.775Z,99.99
2018-06-13T20:04:59.718Z,99.99
2018-06-13T20:05:59.697Z,99.99
2018-06-13T20:06:59.689Z,99.99
2018-06-13T20:07:59.671Z,99.99
2018-06-13T20:08:59.647Z,99.99
2018-06-13T20:09:59.633Z,99.99
2018-06-13T20:10:59.626Z,99.99
2018-06-13T20:11:59.617Z,99.99
2018-06-13T20:12:59.579Z,99.99
2018-06-13T20:13:59.562Z,99.95
2018-06-13T20:14:59.546Z,99.04
2018-06-13T20:15:59.528Z,99.09
2018-06-13T20:16:59.523Z,99.99
2018-06-13T20:17:59.516Z,99.99
2018-06-13T20:18:59.476Z,99.99
2018-06-13T20:19:59.471Z,99.52
2018-06-13T20:20:59.443Z,99.99
2018-06-13T20:21:59.438Z,99.80
2018-06-13T20:22:59.407Z,99.14
2018-06-13T20:23:59.390Z,99.28
2018-06-13T20:24:59.373Z,99.71
2018-06-13T20:25:59.355Z,99.43
2018-06-13T20:26:59.344Z,99.08
2018-06-13T20:27:59.333Z,98.71
2018-06-13T20:28:59.302Z,98.61
2018-06-13T20:29:59.283Z,98.52
2018-06-13T20:30:59.267Z,98.42
2018-06-13T20:31:59.254Z,98.80
2018-06-13T20:32:59.245Z,98.90
2018-06-13T20:33:59.220Z,98.80
2018-06-13T20:34:59.199Z,98.52
2018-06-13T20:35:59.181Z,98.23
2018-06-13T20:36:59.163Z,98.80
2018-06-13T20:37:59.174Z,98.03
2018-06-13T20:38:59.121Z,97.85
2018-06-13T20:39:59.124Z,97.56
2018-06-13T20:40:59.091Z,97.18
2018-06-13T20:41:59.074Z,97.56
2018-06-13T20:42:59.065Z,97.22
2018-06-13T20:43:59.046Z,96.84
2018-06-13T20:44:59.070Z,95.56
2018-06-13T20:45:59.003Z,96.75
2018-06-13T20:46:58.985Z,96.75
2018-06-13T20:47:58.975Z,96.75
2018-06-13T20:48:59.048Z,96.17
2018-06-13T20:49:58.933Z,95.79
2018-06-13T20:50:58.922Z,95.70
2018-06-13T20:51:58.895Z,95.89
2018-06-13T20:52:58.889Z,95.41
2018-06-13T20:53:58.872Z,95.51
2018-06-13T20:54:58.844Z,95.51
2018-06-13T20:55:58.825Z,96.17
2018-06-13T20:56:58.814Z,95.61
2018-06-13T20:57:58.797Z,95.22
2018-06-13T20:58:58.768Z,95.22
2018-06-13T20:59:58.752Z,95.41
2018-06-13T21:00:58.734Z,94.46
2018-06-13T21:01:58.715Z,94.65
2018-06-13T21:02:58.708Z,94.98
2018-06-13T21:03:58.680Z,93.88
2018-06-13T21:04:58.664Z,95.32
2018-06-13T21:05:58.698Z,94.65
2018-06-13T21:06:58.623Z,94.41
2018-06-13T21:07:58.617Z,94.22
2018-06-13T21:08:58.592Z,93.55
2018-06-13T21:09:58.573Z,92.79
2018-06-13T21:10:58.560Z,92.98
2018-06-13T21:11:58.534Z,93.08
2018-06-13T21:12:58.526Z,93.08
2018-06-13T21:13:58.500Z,93.36
2018-06-13T21:14:58.479Z,93.84
2018-06-13T21:15:58.460Z,92.98
2018-06-13T21:16:58.441Z,92.41
2018-06-13T21:17:58.435Z,92.60
2018-06-13T21:18:58.410Z,93.08
2018-06-13T21:19:58.386Z,92.98
2018-06-13T21:20:58.378Z,92.22
2018-06-13T21:21:58.352Z,93.27
2018-06-13T21:22:58.344Z,94.32
2018-06-13T21:23:58.315Z,94.22
2018-06-13T21:24:58.296Z,92.98
2018-06-13T21:25:58.280Z,92.88
2018-06-13T21:26:58.254Z,93.27
2018-06-13T21:27:58.255Z,92.88
2018-06-13T21:28:58.220Z,92.32
2018-06-13T21:29:58.209Z,92.69
2018-06-13T21:30:58.190Z,91.46
2018-06-13T21:31:58.167Z,91.31
2018-06-13T21:32:58.161Z,92.27
2018-06-13T21:33:58.129Z,91.88
2018-06-13T21:34:58.151Z,91.60
2018-06-13T21:35:58.094Z,91.88
2018-06-13T21:36:58.071Z,92.98
2018-06-13T21:37:58.069Z,92.22
2018-06-13T21:38:58.040Z,92.88
2018-06-13T21:39:58.023Z,92.12
2018-06-13T21:40:58.001Z,90.69
2018-06-13T21:41:57.982Z,91.88
2018-06-13T21:42:57.979Z,93.03
2018-06-13T21:43:57.946Z,92.50
2018-06-13T21:44:57.925Z,92.79
2018-06-13T21:45:57.910Z,93.08
2018-06-13T21:46:57.885Z,92.12
2018-06-13T21:47:57.885Z,92.22
2018-06-13T21:48:57.855Z,92.50
2018-06-13T21:49:57.832Z,92.74
2018-06-13T21:50:57.821Z,91.22
2018-06-13T21:51:57.795Z,92.93
2018-06-13T21:52:57.788Z,91.69
2018-06-13T21:53:57.758Z,92.08
2018-06-13T21:54:57.738Z,92.03
2018-06-13T21:55:57.723Z,92.93
2018-06-13T21:56:57.700Z,93.36
2018-06-13T21:57:57.691Z,92.69
2018-06-13T21:58:57.668Z,92.65
2018-06-13T21:59:57.643Z,92.55
2018-06-13T22:00:57.624Z,91.41
2018-06-13T22:01:57.612Z,90.84
2018-06-13T22:02:57.603Z,89.40
2018-06-13T22:03:57.572Z,90.36
2018-06-13T22:04:57.551Z,88.84
2018-06-13T22:05:57.532Z,88.64
2018-06-13T22:06:57.516Z,88.22
2018-06-13T22:07:57.504Z,87.27
2018-06-13T22:08:57.478Z,86.60
2018-06-13T22:09:57.456Z,86.22
2018-06-13T22:10:57.439Z,85.93
2018-06-13T22:11:57.416Z,86.22
2018-06-13T22:12:57.411Z,85.93
2018-06-13T22:13:57.378Z,86.12
2018-06-13T22:14:57.366Z,86.22
2018-06-13T22:15:57.348Z,85.46
2018-06-13T22:16:57.317Z,85.17
